createdAt,value
2018-06-21T00:00:36.541Z,7.90
2018-06-21T00:01:36.512Z,7.70
2018-06-21T00:02:36.480Z,8.20
2018-06-21T00:03:36.455Z,8.00
2018-06-21T00:04:36.419Z,8.20
2018-06-21T00:05:36.391Z,7.70
2018-06-21T00:06:36.378Z,7.60
2018-06-21T00:07:36.324Z,8.10
2018-06-21T00:08:36.294Z,6.70
2018-06-21T00:09:36.289Z,7.30
2018-06-21T00:10:36.230Z,7.50
2018-06-21T00:11:36.197Z,7.50
2018-06-21T00:12:36.220Z,7.50
2018-06-21T00:13:36.156Z,8.20
2018-06-21T00:14:36.129Z,7.90
2018-06-21T00:15:36.067Z,7.40
2018-06-21T00:16:36.039Z,8.40
2018-06-21T00:17:36.008Z,7.50
2018-06-21T00:18:36.064Z,7.90
2018-06-21T00:19:35.952Z,7.30
2018-06-21T00:20:35.937Z,8.00
2018-06-21T00:21:35.906Z,7.90
2018-06-21T00:22:35.870Z,7.30
2018-06-21T00:23:35.819Z,7.70
2018-06-21T00:24:35.787Z,7.70
2018-06-21T00:25:35.756Z,7.90
2018-06-21T00:26:35.724Z,7.40
2018-06-21T00:27:35.688Z,8.10
2018-06-21T00:28:35.665Z,8.00
2018-06-21T00:29:35.646Z,7.40
2018-06-21T00:30:35.599Z,7.70
2018-06-21T00:31:35.577Z,7.70
2018-06-21T00:32:35.535Z,8.70
2018-06-21T00:33:35.507Z,7.90
2018-06-21T00:34:35.477Z,7.40
2018-06-21T00:35:35.438Z,8.00
2018-06-21T00:36:35.408Z,7.90
2018-06-21T00:37:35.379Z,8.20
2018-06-21T00:38:35.349Z,6.70
2018-06-21T00:39:35.318Z,8.00
2018-06-21T00:40:35.320Z,7.50
2018-06-21T00:41:35.254Z,7.20
2018-06-21T00:42:35.224Z,8.50
2018-06-21T00:43:35.194Z,8.20
2018-06-21T00:44:35.161Z,7.80
2018-06-21T00:45:35.123Z,7.50
2018-06-21T00:46:35.095Z,7.80
2018-06-21T00:47:35.070Z,8.20
2018-06-21T00:48:35.040Z,8.60
2018-06-21T00:49:34.999Z,7.60
2018-06-21T00:50:34.975Z,7.80
2018-06-21T00:51:34.938Z,8.40
2018-06-21T00:52:34.907Z,8.10
2018-06-21T00:53:34.875Z,8.70
2018-06-21T00:54:34.845Z,9.00
2018-06-21T00:55:34.818Z,8.40
2018-06-21T00:56:34.782Z,8.90
2018-06-21T00:57:34.750Z,8.40
2018-06-21T00:58:34.717Z,9.30
2018-06-21T00:59:34.687Z,8.50
2018-06-21T01:00:34.694Z,8.40
2018-06-21T01:01:34.625Z,9.20
2018-06-21T01:02:34.591Z,8.20
2018-06-21T01:03:34.563Z,8.20
2018-06-21T01:04:34.530Z,10.00
2018-06-21T01:05:34.497Z,8.70
2018-06-21T01:06:34.466Z,9.50
2018-06-21T01:07:34.449Z,8.90
2018-06-21T01:08:34.402Z,8.40
2018-06-21T01:09:34.372Z,10.10
2018-06-21T01:10:34.339Z,8.90
2018-06-21T01:11:34.312Z,9.50
2018-06-21T01:12:34.276Z,10.40
2018-06-21T01:13:34.244Z,9.80
2018-06-21T01:14:34.208Z,8.60
2018-06-21T01:15:34.185Z,9.90
2018-06-21T01:16:34.151Z,9.50
2018-06-21T01:17:34.112Z,8.90
2018-06-21T01:18:34.088Z,9.60
2018-06-21T01:19:34.057Z,9.80
2018-06-21T01:20:34.021Z,10.20
2018-06-21T01:21:34.014Z,10.20
2018-06-21T01:22:33.960Z,9.70
2018-06-21T01:23:33.945Z,9.80
2018-06-21T01:24:33.897Z,10.00
2018-06-21T01:25:33.864Z,9.70
2018-06-21T01:26:33.834Z,10.30
2018-06-21T01:27:33.800Z,11.20
2018-06-21T01:28:33.788Z,10.80
2018-06-21T01:29:33.737Z,10.60
2018-06-21T01:30:33.707Z,10.00
2018-06-21T01:31:33.673Z,11.60
2018-06-21T01:32:33.655Z,10.20
2018-06-21T01:33:33.608Z,11.20
2018-06-21T01:34:33.579Z,11.20
2018-06-21T01:35:33.547Z,11.30
2018-06-21T01:36:33.511Z,10.20
2018-06-21T01:37:33.486Z,9.50
2018-06-21T01:38:33.455Z,10.00
2018-06-21T01:39:33.417Z,10.90
2018-06-21T01:40:33.386Z,10.30
2018-06-21T01:41:33.355Z,10.90
2018-06-21T01:42:33.323Z,9.90
2018-06-21T01:43:33.301Z,11.60
2018-06-21T01:44:33.284Z,9.90
2018-06-21T01:45:33.226Z,10.20
2018-06-21T01:46:33.199Z,10.90
2018-06-21T01:47:33.177Z,11.70
2018-06-21T01:48:33.131Z,11.20
2018-06-21T01:49:33.104Z,11.60
2018-06-21T01:50:33.063Z,10.60
2018-06-21T01:51:33.036Z,11.00
2018-06-21T01:52:33.031Z,11.60
2018-06-21T01:53:32.987Z,11.20
2018-06-21T01:54:32.937Z,10.20
2018-06-21T01:55:32.908Z,11.50
2018-06-21T01:56:32.876Z,10.20
2018-06-21T01:57:32.846Z,11.80
2018-06-21T01:58:32.812Z,11.10
2018-06-21T01:59:32.788Z,11.40
2018-06-21T02:00:32.749Z,12.20
2018-06-21T02:01:32.718Z,11.60
2018-06-21T02:02:32.681Z,11.30
2018-06-21T02:03:32.653Z,11.40
2018-06-21T02:04:32.623Z,12.10
2018-06-21T02:05:32.589Z,12.60
2018-06-21T02:06:32.564Z,11.50
2018-06-21T02:07:32.549Z,11.70
2018-06-21T02:08:32.488Z,11.30
2018-06-21T02:09:32.460Z,11.30
2018-06-21T02:10:32.429Z,11.30
2018-06-21T02:11:32.408Z,12.30
2018-06-21T02:12:32.367Z,11.90
2018-06-21T02:13:32.333Z,11.40
2018-06-21T02:14:32.331Z,11.50
2018-06-21T02:15:32.275Z,12.30
2018-06-21T02:16:33.064Z,11.30
2018-06-21T02:17:32.203Z,13.20
2018-06-21T02:18:33.062Z,12.50
2018-06-21T02:19:32.151Z,12.20
2018-06-21T02:20:32.105Z,11.80
2018-06-21T02:21:32.071Z,11.70
2018-06-21T02:22:32.047Z,12.80
2018-06-21T02:23:32.010Z,11.90
2018-06-21T02:24:31.991Z,11.40
2018-06-21T02:25:31.942Z,12.80
2018-06-21T02:26:31.914Z,12.30
2018-06-21T02:27:31.906Z,12.00
2018-06-21T02:28:31.854Z,11.60
2018-06-21T02:29:31.830Z,12.40
2018-06-21T02:30:31.788Z,11.60
2018-06-21T02:31:31.750Z,13.00
2018-06-21T02:32:31.737Z,10.70
2018-06-21T02:33:31.688Z,11.30
2018-06-21T02:34:31.669Z,12.70
2018-06-21T02:35:31.624Z,12.60
2018-06-21T02:36:31.593Z,12.30
2018-06-21T02:37:31.563Z,12.00
2018-06-21T02:38:31.525Z,12.60
2018-06-21T02:39:31.497Z,11.80
2018-06-21T02:40:31.469Z,11.40
2018-06-21T02:41:31.434Z,13.40
2018-06-21T02:42:31.400Z,12.30
2018-06-21T02:43:31.403Z,13.50
2018-06-21T02:44:31.332Z,11.60
2018-06-21T02:45:31.301Z,12.00
2018-06-21T02:46:31.283Z,11.50
2018-06-21T02:47:31.236Z,11.40
2018-06-21T02:48:31.208Z,12.10
2018-06-21T02:49:31.173Z,12.50
2018-06-21T02:50:31.143Z,11.90
2018-06-21T02:51:31.115Z,12.40
2018-06-21T02:52:31.078Z,14.30
2018-06-21T02:53:31.077Z,13.70
2018-06-21T02:54:31.007Z,12.60
2018-06-21T02:55:30.999Z,13.40
2018-06-21T02:56:30.950Z,12.70
2018-06-21T02:57:30.914Z,12.90
2018-06-21T02:58:30.881Z,13.80
2018-06-21T02:59:30.849Z,13.70
2018-06-21T03:00:30.831Z,13.20
2018-06-21T03:01:30.791Z,12.40
2018-06-21T03:02:30.752Z,14.10
2018-06-21T03:03:30.743Z,13.00
2018-06-21T03:04:30.699Z,13.40
2018-06-21T03:05:30.655Z,12.90
2018-06-21T03:06:30.627Z,14.00
2018-06-21T03:07:30.591Z,12.50
2018-06-21T03:08:30.560Z,12.80
2018-06-21T03:09:30.526Z,12.40
2018-06-21T03:10:30.513Z,12.40
2018-06-21T03:11:30.479Z,12.20
2018-06-21T03:12:30.461Z,11.30
2018-06-21T03:13:30.397Z,11.10
2018-06-21T03:14:30.364Z,11.90
2018-06-21T03:15:30.334Z,10.60
2018-06-21T03:16:30.297Z,11.50
2018-06-21T03:17:30.278Z,12.20
2018-06-21T03:18:30.234Z,10.80
2018-06-21T03:19:30.201Z,11.70
2018-06-21T03:20:30.179Z,10.90
2018-06-21T03:21:30.179Z,11.80
2018-06-21T03:22:30.103Z,11.40
2018-06-21T03:23:30.072Z,12.40
2018-06-21T03:24:30.040Z,12.40
2018-06-21T03:25:30.011Z,11.40
2018-06-21T03:26:29.976Z,12.40
2018-06-21T03:27:29.943Z,12.20
2018-06-21T03:28:29.911Z,12.70
2018-06-21T03:29:29.877Z,13.10
2018-06-21T03:30:29.852Z,13.90
2018-06-21T03:31:29.809Z,13.50
2018-06-21T03:32:29.802Z,12.80
2018-06-21T03:33:29.751Z,11.70
2018-06-21T03:34:29.738Z,12.20
2018-06-21T03:35:29.686Z,11.60
2018-06-21T03:36:29.654Z,10.70
2018-06-21T03:37:29.648Z,10.90
2018-06-21T03:38:29.601Z,10.00
2018-06-21T03:39:29.566Z,10.00
2018-06-21T03:40:29.528Z,10.10
2018-06-21T03:41:29.496Z,10.60
2018-06-21T03:42:29.504Z,11.00
2018-06-21T03:43:29.432Z,10.90
2018-06-21T03:44:29.411Z,10.50
2018-06-21T03:45:29.364Z,10.50
2018-06-21T03:46:29.343Z,11.20
2018-06-21T03:47:29.312Z,11.20
2018-06-21T03:48:29.266Z,9.90
2018-06-21T03:49:29.237Z,9.20
2018-06-21T03:50:29.236Z,10.70
2018-06-21T03:51:29.172Z,9.80
2018-06-21T03:52:29.138Z,10.00
2018-06-21T03:53:29.116Z,9.20
2018-06-21T03:54:29.103Z,8.90
2018-06-21T03:55:29.058Z,9.20
2018-06-21T03:56:29.038Z,8.80
2018-06-21T03:57:28.992Z,8.70
2018-06-21T03:58:28.962Z,11.50
2018-06-21T03:59:28.913Z,15.00
2018-06-21T04:00:28.885Z,16.00
2018-06-21T04:01:28.851Z,23.40
2018-06-21T04:02:28.823Z,23.20
2018-06-21T04:03:28.801Z,45.00
2018-06-21T04:04:28.758Z,18.40
2018-06-21T04:05:28.918Z,21.90
2018-06-21T04:06:28.690Z,20.50
2018-06-21T04:07:28.662Z,19.20
2018-06-21T04:08:28.686Z,11.00
2018-06-21T04:09:28.597Z,9.50
2018-06-21T04:10:28.568Z,10.30
2018-06-21T04:11:28.550Z,9.50
2018-06-21T04:12:28.507Z,10.40
2018-06-21T04:13:28.468Z,7.80
2018-06-21T04:14:28.461Z,9.10
2018-06-21T04:15:28.459Z,8.50
2018-06-21T04:16:28.377Z,9.80
2018-06-21T04:17:28.359Z,8.20
2018-06-21T04:18:28.318Z,8.10
2018-06-21T04:19:28.293Z,8.00
2018-06-21T04:20:28.252Z,7.60
2018-06-21T04:21:28.217Z,8.60
2018-06-21T04:22:28.194Z,8.70
2018-06-21T04:23:28.182Z,7.90
2018-06-21T04:24:28.163Z,9.10
2018-06-21T04:25:28.094Z,8.30
2018-06-21T04:26:28.072Z,8.10
2018-06-21T04:27:28.031Z,8.60
2018-06-21T04:28:28.001Z,20.60
2018-06-21T04:29:27.964Z,9.40
2018-06-21T04:30:27.940Z,10.30
2018-06-21T04:31:27.908Z,8.00
2018-06-21T04:32:27.944Z,8.90
2018-06-21T04:33:27.860Z,8.00
2018-06-21T04:34:27.806Z,8.50
2018-06-21T04:35:27.791Z,10.90
2018-06-21T04:36:27.749Z,8.50
2018-06-21T04:37:27.744Z,11.70
2018-06-21T04:38:27.683Z,9.40
2018-06-21T04:39:27.652Z,8.80
2018-06-21T04:40:27.638Z,9.40
2018-06-21T04:41:27.602Z,8.60
2018-06-21T04:42:27.561Z,8.00
2018-06-21T04:43:27.550Z,8.20
2018-06-21T04:44:27.495Z,8.70
2018-06-21T04:45:27.460Z,7.80
2018-06-21T04:46:27.457Z,8.60
2018-06-21T04:47:27.404Z,10.40
2018-06-21T04:48:27.372Z,9.10
2018-06-21T04:49:27.338Z,11.40
2018-06-21T04:50:27.315Z,8.40
2018-06-21T04:51:27.288Z,9.80
2018-06-21T04:52:27.246Z,18.30
2018-06-21T04:53:27.249Z,11.00
2018-06-21T04:54:27.213Z,34.00
2018-06-21T04:55:27.151Z,14.80
2018-06-21T04:56:27.125Z,19.20
2018-06-21T04:57:27.082Z,12.00
2018-06-21T04:58:27.054Z,14.60
2018-06-21T04:59:27.038Z,15.60
2018-06-21T05:00:26.992Z,18.00
2018-06-21T05:01:26.970Z,13.30
2018-06-21T05:02:27.058Z,11.90
2018-06-21T05:03:27.599Z,11.10
2018-06-21T05:04:26.863Z,14.20
2018-06-21T05:05:26.848Z,12.90
2018-06-21T05:06:26.843Z,12.90
2018-06-21T05:07:26.779Z,12.50
2018-06-21T05:08:26.751Z,12.80
2018-06-21T05:09:26.722Z,12.20
2018-06-21T05:10:26.692Z,12.10
2018-06-21T05:11:26.652Z,13.30
2018-06-21T05:12:26.633Z,12.90
2018-06-21T05:13:26.584Z,14.30
2018-06-21T05:14:26.553Z,13.80
2018-06-21T05:15:26.527Z,14.80
2018-06-21T05:16:26.487Z,12.40
2018-06-21T05:17:26.465Z,10.50
2018-06-21T05:18:26.449Z,15.30
2018-06-21T05:19:26.411Z,16.70
2018-06-21T05:20:26.371Z,12.70
2018-06-21T05:21:26.341Z,11.90
2018-06-21T05:22:26.346Z,13.20
2018-06-21T05:23:26.287Z,12.90
2018-06-21T05:24:26.294Z,12.80
2018-06-21T05:25:26.225Z,12.60
2018-06-21T05:26:26.205Z,13.00
2018-06-21T05:27:26.170Z,12.80
2018-06-21T05:28:26.120Z,13.60
2018-06-21T05:29:26.090Z,13.20
2018-06-21T05:30:26.057Z,12.80
2018-06-21T05:31:26.037Z,12.00
2018-06-21T05:32:25.994Z,11.90
2018-06-21T05:33:25.965Z,11.80
2018-06-21T05:34:25.930Z,12.60
2018-06-21T05:35:25.902Z,11.80
2018-06-21T05:36:25.866Z,12.50
2018-06-21T05:37:25.933Z,12.90
2018-06-21T05:38:25.810Z,13.20
2018-06-21T05:39:25.792Z,12.80
2018-06-21T05:40:25.751Z,12.30
2018-06-21T05:41:25.721Z,12.80
2018-06-21T05:42:25.685Z,13.30
2018-06-21T05:43:25.653Z,11.70
2018-06-21T05:44:25.657Z,14.70
2018-06-21T05:45:25.590Z,16.40
2018-06-21T05:46:25.560Z,18.00
2018-06-21T05:47:25.529Z,14.80
2018-06-21T05:48:25.498Z,30.80
2018-06-21T05:49:25.466Z,15.40
2018-06-21T05:50:25.432Z,17.00
2018-06-21T05:51:25.400Z,34.60
2018-06-21T05:52:25.368Z,15.40
2018-06-21T05:53:25.334Z,16.60
2018-06-21T05:54:25.305Z,17.50
2018-06-21T05:55:25.299Z,18.80
2018-06-21T05:56:25.241Z,17.40
2018-06-21T05:57:25.216Z,19.90
2018-06-21T05:58:25.181Z,19.40
2018-06-21T05:59:25.150Z,24.40
2018-06-21T06:00:25.109Z,19.90
2018-06-21T06:01:25.086Z,21.00
2018-06-21T06:02:25.052Z,18.00
2018-06-21T06:03:25.022Z,20.60
2018-06-21T06:04:24.986Z,21.80
2018-06-21T06:05:24.955Z,22.90
2018-06-21T06:06:24.920Z,21.90
2018-06-21T06:07:24.894Z,28.30
2018-06-21T06:08:24.899Z,24.40
2018-06-21T06:09:24.825Z,21.60
2018-06-21T06:10:24.816Z,28.00
2018-06-21T06:11:24.794Z,28.30
2018-06-21T06:12:24.733Z,24.90
2018-06-21T06:13:24.696Z,24.40
2018-06-21T06:14:24.666Z,25.60
2018-06-21T06:15:24.635Z,22.50
2018-06-21T06:16:24.601Z,24.20
2018-06-21T06:17:24.572Z,22.80
2018-06-21T06:18:24.541Z,23.70
2018-06-21T06:19:24.506Z,24.30
2018-06-21T06:20:24.474Z,25.40
2018-06-21T06:21:24.442Z,24.60
2018-06-21T06:22:24.412Z,25.30
2018-06-21T06:23:24.382Z,25.00
2018-06-21T06:24:24.345Z,25.50
2018-06-21T06:25:24.340Z,24.90
2018-06-21T06:26:24.279Z,26.40
2018-06-21T06:27:24.268Z,26.50
2018-06-21T06:28:24.218Z,24.60
2018-06-21T06:29:24.185Z,25.10
2018-06-21T06:30:24.153Z,26.80
2018-06-21T06:31:24.121Z,25.80
2018-06-21T06:32:24.089Z,26.80
2018-06-21T06:33:24.577Z,29.10
2018-06-21T06:34:24.026Z,25.70
2018-06-21T06:35:24.014Z,26.50
2018-06-21T06:36:23.959Z,25.40
2018-06-21T06:37:23.927Z,30.40
2018-06-21T06:38:23.898Z,28.40
2018-06-21T06:39:23.862Z,24.60
2018-06-21T06:40:23.885Z,25.30
2018-06-21T06:41:23.801Z,26.60
2018-06-21T06:42:23.769Z,23.40
2018-06-21T06:43:23.737Z,27.60
2018-06-21T06:44:23.704Z,24.80
2018-06-21T06:45:23.674Z,23.30
2018-06-21T06:46:23.642Z,24.00
2018-06-21T06:47:23.610Z,24.40
2018-06-21T06:48:23.576Z,22.10
2018-06-21T06:49:23.546Z,23.70
2018-06-21T06:50:23.509Z,23.00
2018-06-21T06:51:23.486Z,24.10
2018-06-21T06:52:23.468Z,22.80
2018-06-21T06:53:23.417Z,34.40
2018-06-21T06:54:23.437Z,26.10
2018-06-21T06:55:23.355Z,23.60
2018-06-21T06:56:23.323Z,24.80
2018-06-21T06:57:23.291Z,26.00
2018-06-21T06:58:23.262Z,24.20
2018-06-21T06:59:23.231Z,23.10
2018-06-21T07:00:23.193Z,24.90
2018-06-21T07:01:23.159Z,24.90
2018-06-21T07:02:23.132Z,22.50
2018-06-21T07:03:23.101Z,22.40
2018-06-21T07:04:23.067Z,22.10
2018-06-21T07:05:23.039Z,22.70
2018-06-21T07:06:23.008Z,24.50
2018-06-21T07:07:22.968Z,23.60
2018-06-21T07:08:22.953Z,23.70
2018-06-21T07:09:22.919Z,24.50
2018-06-21T07:10:22.879Z,21.20
2018-06-21T07:11:22.847Z,22.10
2018-06-21T07:12:22.845Z,23.70
2018-06-21T07:13:22.780Z,23.40
2018-06-21T07:14:22.827Z,22.50
2018-06-21T07:15:22.722Z,22.50
2018-06-21T07:16:22.686Z,23.10
2018-06-21T07:17:22.656Z,22.00
2018-06-21T07:18:22.625Z,21.70
2018-06-21T07:19:22.594Z,21.90
2018-06-21T07:20:22.612Z,21.10
2018-06-21T07:21:22.527Z,21.30
2018-06-21T07:22:22.497Z,22.00
2018-06-21T07:23:22.465Z,21.90
2018-06-21T07:24:22.429Z,23.10
2018-06-21T07:25:22.401Z,21.90
2018-06-21T07:26:22.367Z,21.50
2018-06-21T07:27:22.340Z,21.70
2018-06-21T07:28:22.349Z,21.70
2018-06-21T07:29:22.276Z,20.70
2018-06-21T07:30:22.245Z,20.70
2018-06-21T07:31:22.213Z,21.40
2018-06-21T07:32:22.183Z,20.90
2018-06-21T07:33:22.149Z,21.60
2018-06-21T07:34:22.119Z,20.90
2018-06-21T07:35:22.092Z,21.00
2018-06-21T07:36:22.078Z,22.20
2018-06-21T07:37:22.024Z,20.40
2018-06-21T07:38:21.996Z,20.50
2018-06-21T07:39:21.959Z,21.50
2018-06-21T07:40:21.929Z,20.30
2018-06-21T07:41:21.896Z,18.50
2018-06-21T07:42:21.861Z,15.70
2018-06-21T07:43:21.827Z,15.60
2018-06-21T07:44:21.803Z,15.80
2018-06-21T07:45:21.772Z,15.20
2018-06-21T07:46:21.738Z,15.70
2018-06-21T07:47:21.706Z,15.50
2018-06-21T07:48:21.678Z,15.00
2018-06-21T07:49:21.644Z,14.40
2018-06-21T07:50:21.612Z,14.40
2018-06-21T07:51:21.575Z,13.60
2018-06-21T07:52:21.571Z,13.70
2018-06-21T07:53:21.517Z,13.40
2018-06-21T07:54:21.487Z,12.90
2018-06-21T07:55:21.455Z,12.50
2018-06-21T07:56:21.426Z,12.00
2018-06-21T07:57:21.394Z,12.10
2018-06-21T07:58:21.368Z,10.50
2018-06-21T07:59:21.331Z,8.90
2018-06-21T08:00:21.315Z,9.50
2018-06-21T08:01:21.265Z,8.80
2018-06-21T08:02:21.237Z,9.40
2018-06-21T08:03:21.200Z,7.70
2018-06-21T08:04:21.176Z,7.80
2018-06-21T08:05:21.145Z,6.50
2018-06-21T08:06:21.110Z,7.00
2018-06-21T08:07:21.076Z,7.50
2018-06-21T08:08:21.072Z,7.60
2018-06-21T08:09:21.012Z,7.30
2018-06-21T08:10:20.983Z,7.50
2018-06-21T08:11:20.956Z,6.60
2018-06-21T08:12:20.920Z,6.30
2018-06-21T08:13:20.901Z,5.30
2018-06-21T08:14:20.858Z,5.30
2018-06-21T08:15:20.820Z,5.80
2018-06-21T08:16:20.798Z,5.60
2018-06-21T08:17:20.764Z,5.80
2018-06-21T08:18:20.734Z,5.00
2018-06-21T08:19:20.698Z,5.80
2018-06-21T08:20:20.676Z,6.00
2018-06-21T08:21:20.650Z,6.80
2018-06-21T08:22:20.609Z,7.30
2018-06-21T08:23:20.643Z,7.10
2018-06-21T08:24:20.579Z,6.90
2018-06-21T08:25:20.516Z,7.20
2018-06-21T08:26:20.486Z,7.60
2018-06-21T08:27:20.453Z,7.80
2018-06-21T08:28:20.424Z,7.40
2018-06-21T08:29:20.390Z,7.40
2018-06-21T08:30:20.362Z,7.20
2018-06-21T08:31:20.329Z,7.40
2018-06-21T08:32:20.305Z,6.80
2018-06-21T08:33:20.271Z,7.40
2018-06-21T08:34:20.238Z,6.50
2018-06-21T08:35:20.206Z,6.70
2018-06-21T08:36:20.178Z,7.50
2018-06-21T08:37:20.146Z,7.10
2018-06-21T08:38:20.118Z,6.80
2018-06-21T08:39:20.087Z,6.60
2018-06-21T08:40:20.055Z,6.60
2018-06-21T08:41:20.026Z,6.20
2018-06-21T08:42:19.997Z,6.30
2018-06-21T08:43:19.966Z,5.80
2018-06-21T08:44:19.933Z,5.40
2018-06-21T08:45:19.899Z,5.00
2018-06-21T08:46:19.885Z,5.20
2018-06-21T08:47:19.843Z,5.20
2018-06-21T08:48:19.812Z,5.70
2018-06-21T08:49:19.780Z,5.60
2018-06-21T08:50:19.751Z,5.00
2018-06-21T08:51:19.741Z,5.30
2018-06-21T08:52:19.692Z,6.30
2018-06-21T08:53:20.000Z,5.80
2018-06-21T08:54:20.173Z,5.20
2018-06-21T08:55:19.602Z,5.60
2018-06-21T08:56:19.566Z,5.20
2018-06-21T08:57:19.569Z,4.50
2018-06-21T08:58:19.557Z,4.60
2018-06-21T08:59:19.483Z,4.80
2018-06-21T09:00:19.455Z,5.40
2018-06-21T09:01:19.427Z,4.40
2018-06-21T09:02:19.398Z,4.30
2018-06-21T09:03:19.367Z,4.00
2018-06-21T09:04:19.339Z,2.60
2018-06-21T09:05:19.315Z,3.00
2018-06-21T09:06:19.280Z,4.10
2018-06-21T09:07:19.258Z,2.60
2018-06-21T09:08:19.221Z,3.30
2018-06-21T09:09:19.193Z,3.10
2018-06-21T09:10:19.160Z,3.70
2018-06-21T09:11:19.158Z,3.10
2018-06-21T09:12:19.118Z,3.10
2018-06-21T09:13:19.078Z,3.20
2018-06-21T09:14:19.054Z,2.50
2018-06-21T09:15:19.061Z,3.40
2018-06-21T09:16:19.004Z,2.80
2018-06-21T09:17:18.979Z,2.60
2018-06-21T09:18:18.934Z,4.20
2018-06-21T09:19:18.910Z,6.40
2018-06-21T09:20:18.882Z,5.20
2018-06-21T09:21:18.858Z,3.00
2018-06-21T09:22:18.825Z,3.20
2018-06-21T09:23:18.795Z,3.40
2018-06-21T09:24:18.769Z,3.50
2018-06-21T09:25:18.742Z,2.90
2018-06-21T09:26:18.716Z,3.50
2018-06-21T09:27:18.687Z,2.90
2018-06-21T09:28:18.658Z,2.90
2018-06-21T09:29:18.630Z,2.80
2018-06-21T09:30:18.606Z,3.10
2018-06-21T09:31:18.576Z,3.50
2018-06-21T09:32:18.550Z,2.60
2018-06-21T09:33:18.561Z,3.20
2018-06-21T09:34:18.496Z,3.80
2018-06-21T09:35:18.471Z,3.30
2018-06-21T09:36:18.444Z,2.80
2018-06-21T09:37:18.412Z,2.70
2018-06-21T09:38:18.388Z,2.20
2018-06-21T09:39:18.362Z,2.50
2018-06-21T09:40:18.333Z,3.10
2018-06-21T09:41:18.357Z,3.30
2018-06-21T09:42:18.275Z,2.90
2018-06-21T09:43:18.247Z,3.20
2018-06-21T09:44:18.220Z,3.10
2018-06-21T09:45:18.192Z,2.50
2018-06-21T09:46:18.161Z,2.80
2018-06-21T09:47:18.133Z,2.70
2018-06-21T09:48:18.132Z,3.00
2018-06-21T09:49:18.077Z,2.00
2018-06-21T09:50:18.047Z,2.50
2018-06-21T09:51:18.024Z,3.40
2018-06-21T09:52:17.993Z,2.40
2018-06-21T09:53:17.963Z,3.20
2018-06-21T09:54:17.938Z,3.30
2018-06-21T09:55:18.757Z,3.60
2018-06-21T09:56:17.880Z,3.40
2018-06-21T09:57:17.853Z,2.80
2018-06-21T09:58:17.843Z,2.30
2018-06-21T09:59:17.799Z,2.90
2018-06-21T10:00:17.775Z,2.30
2018-06-21T10:01:17.745Z,2.90
2018-06-21T10:02:17.718Z,2.60
2018-06-21T10:03:17.695Z,3.10
2018-06-21T10:04:17.665Z,3.10
2018-06-21T10:05:17.639Z,3.30
2018-06-21T10:06:17.615Z,4.50
2018-06-21T10:07:17.586Z,3.40
2018-06-21T10:08:17.561Z,3.30
2018-06-21T10:09:17.562Z,4.80
2018-06-21T10:10:17.511Z,4.00
2018-06-21T10:11:17.489Z,4.90
2018-06-21T10:12:17.450Z,3.90
2018-06-21T10:13:17.431Z,2.80
2018-06-21T10:14:17.399Z,2.80
2018-06-21T10:15:17.376Z,3.20
2018-06-21T10:16:17.373Z,3.00
2018-06-21T10:17:17.320Z,3.80
2018-06-21T10:18:17.291Z,3.00
2018-06-21T10:19:17.267Z,2.70
2018-06-21T10:20:17.240Z,2.80
2018-06-21T10:21:17.210Z,2.90
2018-06-21T10:22:17.199Z,3.10
2018-06-21T10:23:17.161Z,3.30
2018-06-21T10:24:17.130Z,2.60
2018-06-21T10:25:17.110Z,3.40
2018-06-21T10:26:17.079Z,3.60
2018-06-21T10:27:17.054Z,2.70
2018-06-21T10:28:17.028Z,2.50
2018-06-21T10:29:16.999Z,3.30
2018-06-21T10:30:16.970Z,3.30
2018-06-21T10:31:16.944Z,2.70
2018-06-21T10:32:16.916Z,2.80
2018-06-21T10:33:16.891Z,3.30
2018-06-21T10:34:16.862Z,2.70
2018-06-21T10:35:16.865Z,2.50
2018-06-21T10:36:16.814Z,2.30
2018-06-21T10:37:16.813Z,3.20
2018-06-21T10:38:16.762Z,2.80
2018-06-21T10:39:16.736Z,2.60
2018-06-21T10:40:16.710Z,2.40
2018-06-21T10:41:16.682Z,3.30
2018-06-21T10:42:16.661Z,3.90
2018-06-21T10:43:16.633Z,2.80
2018-06-21T10:44:16.637Z,3.00
2018-06-21T10:45:16.582Z,2.20
2018-06-21T10:46:16.559Z,2.90
2018-06-21T10:47:16.534Z,3.70
2018-06-21T10:48:16.500Z,3.10
2018-06-21T10:49:16.481Z,2.70
2018-06-21T10:50:16.456Z,2.20
2018-06-21T10:51:16.430Z,2.20
2018-06-21T10:52:16.407Z,3.20
2018-06-21T10:53:16.378Z,2.60
2018-06-21T10:54:16.356Z,3.80
2018-06-21T10:55:16.330Z,4.40
2018-06-21T10:56:16.304Z,4.80
2018-06-21T10:57:16.283Z,4.50
2018-06-21T10:58:16.257Z,4.50
2018-06-21T10:59:16.227Z,3.10
2018-06-21T11:00:16.216Z,2.50
2018-06-21T11:01:16.177Z,2.60
2018-06-21T11:02:16.150Z,4.70
2018-06-21T11:03:16.140Z,5.60
2018-06-21T11:04:16.098Z,3.60
2018-06-21T11:05:16.082Z,2.60
2018-06-21T11:06:16.075Z,2.50
2018-06-21T11:07:16.023Z,2.20
2018-06-21T11:08:15.996Z,2.40
2018-06-21T11:09:15.991Z,2.50
2018-06-21T11:10:15.946Z,2.50
2018-06-21T11:11:15.918Z,2.30
2018-06-21T11:12:15.925Z,2.90
2018-06-21T11:13:15.869Z,2.00
2018-06-21T11:14:15.848Z,2.20
2018-06-21T11:15:15.817Z,2.30
2018-06-21T11:16:15.819Z,2.20
2018-06-21T11:17:15.771Z,2.40
2018-06-21T11:18:15.741Z,2.10
2018-06-21T11:19:15.721Z,2.40
2018-06-21T11:20:15.696Z,3.30
2018-06-21T11:21:15.672Z,3.20
2018-06-21T11:22:15.645Z,2.60
2018-06-21T11:23:15.621Z,2.80
2018-06-21T11:24:15.597Z,2.80
2018-06-21T11:25:15.584Z,1.80
2018-06-21T11:26:15.544Z,2.40
2018-06-21T11:27:15.519Z,2.50
2018-06-21T11:28:15.496Z,2.50
2018-06-21T11:29:15.502Z,1.80
2018-06-21T11:30:15.473Z,3.00
2018-06-21T11:31:15.418Z,2.00
2018-06-21T11:32:15.393Z,3.80
2018-06-21T11:33:15.370Z,2.50
2018-06-21T11:34:15.345Z,2.50
2018-06-21T11:35:15.336Z,2.50
2018-06-21T11:36:15.292Z,2.70
2018-06-21T11:37:15.267Z,2.70
2018-06-21T11:38:15.317Z,2.10
2018-06-21T11:39:15.279Z,2.30
2018-06-21T11:40:15.191Z,2.60
2018-06-21T11:41:15.176Z,2.30
2018-06-21T11:42:15.135Z,2.00
2018-06-21T11:43:15.134Z,2.80
2018-06-21T11:44:15.094Z,3.20
2018-06-21T11:45:15.064Z,2.30
2018-06-21T11:46:15.035Z,1.90
2018-06-21T11:47:15.013Z,2.00
2018-06-21T11:48:15.017Z,2.00
2018-06-21T11:49:14.981Z,2.10
2018-06-21T11:50:14.936Z,1.70
2018-06-21T11:51:14.909Z,2.00
2018-06-21T11:52:14.923Z,1.60
2018-06-21T11:53:14.860Z,2.20
2018-06-21T11:54:14.856Z,1.80
2018-06-21T11:55:14.818Z,2.20
2018-06-21T11:56:14.794Z,1.90
2018-06-21T11:57:14.777Z,1.70
2018-06-21T11:58:14.743Z,1.60
2018-06-21T11:59:14.711Z,1.60
2018-06-21T12:00:14.692Z,1.70
2018-06-21T12:01:14.660Z,1.50
2018-06-21T12:02:14.639Z,1.30
2018-06-21T12:03:14.616Z,1.90
2018-06-21T12:04:14.588Z,1.90
2018-06-21T12:05:14.565Z,1.90
2018-06-21T12:06:14.541Z,3.10
2018-06-21T12:07:14.526Z,3.30
2018-06-21T12:08:14.528Z,3.40
2018-06-21T12:09:14.467Z,2.50
2018-06-21T12:10:14.435Z,2.80
2018-06-21T12:11:14.418Z,2.40
2018-06-21T12:12:14.390Z,2.00
2018-06-21T12:13:14.368Z,2.10
2018-06-21T12:14:14.341Z,1.90
2018-06-21T12:15:14.322Z,1.80
2018-06-21T12:16:14.284Z,1.90
2018-06-21T12:17:14.292Z,2.20
2018-06-21T12:18:14.246Z,2.00
2018-06-21T12:19:14.216Z,2.00
2018-06-21T12:20:14.190Z,2.00
2018-06-21T12:21:14.167Z,1.90
2018-06-21T12:22:14.138Z,1.60
2018-06-21T12:23:14.110Z,2.00
2018-06-21T12:24:14.090Z,2.50
2018-06-21T12:25:14.060Z,2.60
2018-06-21T12:26:14.191Z,2.00
2018-06-21T12:27:14.012Z,1.70
2018-06-21T12:28:13.989Z,1.60
2018-06-21T12:29:13.960Z,1.70
2018-06-21T12:30:13.935Z,1.70
2018-06-21T12:31:13.911Z,1.90
2018-06-21T12:32:13.886Z,1.80
2018-06-21T12:33:13.861Z,2.50
2018-06-21T12:34:13.836Z,2.60
2018-06-21T12:35:13.811Z,1.90
2018-06-21T12:36:13.796Z,1.60
2018-06-21T12:37:13.796Z,1.70
2018-06-21T12:38:13.732Z,1.90
2018-06-21T12:39:13.713Z,1.80
2018-06-21T12:40:13.687Z,1.70
2018-06-21T12:41:13.663Z,2.00
2018-06-21T12:42:13.639Z,1.80
2018-06-21T12:43:13.632Z,1.40
2018-06-21T12:44:13.586Z,1.80
2018-06-21T12:45:13.570Z,1.90
2018-06-21T12:46:13.534Z,1.70
2018-06-21T12:47:13.513Z,1.90
2018-06-21T12:48:13.487Z,1.80
2018-06-21T12:49:13.461Z,1.70
2018-06-21T12:50:13.435Z,1.70
2018-06-21T12:51:13.410Z,1.90
2018-06-21T12:52:13.399Z,1.50
2018-06-21T12:53:13.365Z,2.10
2018-06-21T12:54:13.337Z,2.10
2018-06-21T12:55:13.314Z,1.40
2018-06-21T12:56:13.288Z,2.00
2018-06-21T12:57:13.267Z,2.40
2018-06-21T12:58:13.240Z,1.80
2018-06-21T12:59:13.213Z,1.70
2018-06-21T13:00:13.190Z,1.50
2018-06-21T13:01:13.161Z,2.50
2018-06-21T13:02:13.139Z,2.40
2018-06-21T13:03:13.137Z,2.20
2018-06-21T13:04:13.095Z,1.80
2018-06-21T13:05:13.085Z,1.50
2018-06-21T13:06:13.064Z,2.00